Time;durP1;ratioP1;P1;durP2;ratioP2;P2;SDS_P1;SDS_P2;PMS_P1;PMS_P2;Temp;Humidity;BMP_temperature;BMP_pressure;BME280_temperature;BME280_humidity;BME280_pressure;Samples;Min_cycle;Max_cycle;Signal;HPM_P1;HPM_P2
2023/12/04 00:01:58;;;;;;;18.55;11.63;;;4.40;71.70;;;;;;5042347;28;20033;-55
2023/12/04 00:04:35;;;;;;;17.75;10.82;;;4.40;71.60;;;;;;5044082;28;20060;-55
2023/12/04 00:07:03;;;;;;;18.92;12.13;;;4.40;71.40;;;;;;5046565;28;20098;-53
2023/12/04 00:09:35;;;;;;;;;;;4.40;71.30;;;;;;5051280;28;20043;-55
2023/12/04 00:12:04;;;;;;;16.48;9.27;;;4.40;71.70;;;;;;5051967;28;19928;-55
2023/12/04 00:14:34;;;;;;;20.33;11.40;;;4.40;71.10;;;;;;5049630;28;20045;-51
2023/12/04 00:17:02;;;;;;;16.77;10.32;;;4.40;71.20;;;;;;5051598;28;20446;-51
2023/12/04 00:19:29;;;;;;;14.57;9.93;;;4.40;71.30;;;;;;5052123;28;20120;-54
2023/12/04 00:21:56;;;;;;;16.02;10.65;;;4.40;71.30;;;;;;5049674;28;20434;-54
2023/12/04 00:24:23;;;;;;;22.08;11.35;;;4.40;71.40;;;;;;5048535;28;20049;-55
2023/12/04 00:26:50;;;;;;;18.02;11.43;;;4.40;71.40;;;;;;5051838;28;20052;-51
2023/12/04 00:29:20;;;;;;;18.65;11.30;;;4.40;71.40;;;;;;5051308;28;20573;-53
2023/12/04 00:31:47;;;;;;;18.17;10.93;;;4.40;71.30;;;;;;5051812;28;20049;-54
2023/12/04 00:34:16;;;;;;;18.88;10.65;;;4.40;71.20;;;;;;5048651;28;20049;-54
2023/12/04 00:36:45;;;;;;;16.17;9.75;;;4.40;71.20;;;;;;5055220;28;20041;-54
2023/12/04 00:39:12;;;;;;;17.23;10.30;;;4.40;71.30;;;;;;5051694;28;20044;-54
2023/12/04 00:41:39;;;;;;;17.63;10.18;;;4.40;71.30;;;;;;5049823;28;20067;-52
2023/12/04 00:44:07;;;;;;;17.55;10.60;;;4.40;71.30;;;;;;5051820;28;20044;-54
2023/12/04 00:46:45;;;;;;;16.88;9.93;;;4.40;71.10;;;;;;5052027;28;20029;-54
2023/12/04 00:49:16;;;;;;;16.55;10.63;;;4.40;70.90;;;;;;5051207;28;20048;-52
2023/12/04 00:51:43;;;;;;;16.30;10.90;;;4.40;71.00;;;;;;5048348;28;20041;-52
2023/12/04 00:54:11;;;;;;;19.50;10.45;;;4.40;71.10;;;;;;5048022;28;20083;-50
2023/12/04 00:56:39;;;;;;;17.90;10.57;;;4.40;71.10;;;;;;5048081;28;20041;-55
2023/12/04 00:59:08;;;;;;;15.32;10.10;;;4.40;71.10;;;;;;5045963;28;20055;-55
2023/12/04 01:01:39;;;;;;;15.18;10.57;;;4.40;71.00;;;;;;5041657;28;20056;-54
2023/12/04 01:04:15;;;;;;;18.88;9.93;;;4.40;70.80;;;;;;5036813;28;20058;-54
2023/12/04 01:06:43;;;;;;;17.70;10.65;;;4.40;70.80;;;;;;5048447;28;20155;-52
2023/12/04 01:09:14;;;;;;;15.15;9.90;;;4.40;70.80;;;;;;5051627;28;20044;-55
2023/12/04 01:11:41;;;;;;;17.35;10.32;;;4.40;70.70;;;;;;5051376;28;20124;-55
2023/12/04 01:14:09;;;;;;;19.85;10.25;;;4.40;70.70;;;;;;5050735;28;20045;-56
2023/12/04 01:16:36;;;;;;;15.30;9.50;;;4.40;70.70;;;;;;5051179;28;20110;-52
2023/12/04 01:19:08;;;;;;;15.05;9.43;;;4.40;70.70;;;;;;5050511;28;20124;-54
2023/12/04 01:21:37;;;;;;;15.63;10.02;;;4.40;70.70;;;;;;5049399;28;20037;-55
2023/12/04 01:24:04;;;;;;;15.98;9.07;;;4.40;70.70;;;;;;5047600;28;20099;-54
2023/12/04 01:26:31;;;;;;;16.45;10.25;;;4.40;70.70;;;;;;5050672;28;20045;-53
2023/12/04 01:28:59;;;;;;;16.63;9.77;;;4.40;70.80;;;;;;5050696;28;20068;-51
2023/12/04 01:31:26;;;;;;;15.38;9.77;;;4.40;70.70;;;;;;5050861;28;20419;-51
2023/12/04 01:33:56;;;;;;;13.48;9.32;;;4.50;70.60;;;;;;5048756;28;20055;-54
2023/12/04 01:36:23;;;;;;;13.32;8.82;;;4.40;70.40;;;;;;5057113;28;20564;-54
2023/12/04 01:38:49;;;;;;;16.23;9.57;;;4.50;70.50;;;;;;5044205;28;20040;-53
2023/12/04 01:41:16;;;;;;;14.73;9.70;;;4.50;70.60;;;;;;5049474;28;20049;-55
2023/12/04 01:43:43;;;;;;;14.52;8.60;;;4.50;70.60;;;;;;5046916;28;20130;-53
2023/12/04 01:46:10;;;;;;;14.57;9.35;;;4.40;70.50;;;;;;5049525;28;20068;-55
2023/12/04 01:48:40;;;;;;;14.70;9.02;;;4.40;70.40;;;;;;5050472;28;20128;-53
2023/12/04 01:51:11;;;;;;;14.85;8.50;;;4.50;70.50;;;;;;5048572;28;20053;-52
2023/12/04 01:53:40;;;;;;;14.75;8.63;;;4.50;70.40;;;;;;5047182;28;20043;-55
2023/12/04 01:56:08;;;;;;;13.85;9.82;;;4.50;70.40;;;;;;5045237;28;20041;-50
2023/12/04 01:58:44;;;;;;;16.27;9.57;;;4.50;70.40;;;;;;5046876;28;20037;-55
2023/12/04 02:01:16;;;;;;;13.80;8.63;;;4.50;70.40;;;;;;5040669;28;20087;-55
2023/12/04 02:03:43;;;;;;;14.68;9.00;;;4.50;70.40;;;;;;5041100;28;20091;-55
2023/12/04 02:06:12;;;;;;;13.82;8.55;;;4.50;70.20;;;;;;5048158;28;20033;-54
2023/12/04 02:08:40;;;;;;;13.40;9.02;;;4.50;70.30;;;;;;5050025;28;20056;-51
2023/12/04 02:11:10;;;;;;;17.02;10.65;;;4.50;70.40;;;;;;5050495;28;20059;-53
2023/12/04 02:13:37;;;;;;;16.25;9.13;;;4.50;70.40;;;;;;5047055;28;20060;-54
2023/12/04 02:16:06;;;;;;;15.05;8.98;;;4.50;70.40;;;;;;5049886;28;20057;-54
2023/12/04 02:18:34;;;;;;;15.05;8.63;;;4.50;70.50;;;;;;5049160;28;20561;-55
2023/12/04 02:21:01;;;;;;;13.52;9.38;;;4.50;70.60;;;;;;5048014;28;20064;-54
2023/12/04 02:23:31;;;;;;;14.52;9.65;;;4.50;70.60;;;;;;5048035;28;20041;-54
2023/12/04 02:26:02;;;;;;;16.73;9.70;;;4.50;70.60;;;;;;5048774;28;20064;-55
2023/12/04 02:28:39;;;;;;;15.95;10.15;;;4.50;70.40;;;;;;5053775;28;20106;-55
2023/12/04 02:31:07;;;;;;;16.90;9.38;;;4.60;71.00;;;;;;5054394;28;20183;-56
2023/12/04 02:33:36;;;;;;;13.98;8.50;;;4.60;70.30;;;;;;5049086;28;20069;-55
2023/12/04 02:36:07;;;;;;;16.25;10.02;;;4.60;70.20;;;;;;5060368;28;20051;-52
2023/12/04 02:38:34;;;;;;;17.83;10.00;;;4.60;70.00;;;;;;5055319;28;20598;-53
2023/12/04 02:41:01;;;;;;;14.55;9.77;;;4.60;70.00;;;;;;5054524;28;20074;-55
2023/12/04 02:43:28;;;;;;;18.25;10.27;;;4.60;70.00;;;;;;5050409;28;20124;-55
2023/12/04 02:45:54;;;;;;;16.73;10.48;;;4.50;69.90;;;;;;5053055;28;20037;-53
2023/12/04 02:48:21;;;;;;;17.30;11.02;;;4.50;69.80;;;;;;5052766;28;20037;-55
2023/12/04 02:50:51;;;;;;;16.40;10.00;;;4.60;69.70;;;;;;5044668;28;20123;-55
2023/12/04 02:53:27;;;;;;;18.80;11.50;;;4.50;69.60;;;;;;5050633;28;20076;-54
2023/12/04 02:55:54;;;;;;;15.70;9.63;;;4.50;69.60;;;;;;5045710;28;20064;-55
2023/12/04 02:58:21;;;;;;;18.80;11.57;;;4.50;69.60;;;;;;5049305;28;20048;-55
2023/12/04 03:00:57;;;;;;;16.65;9.43;;;4.50;69.50;;;;;;5043087;28;20560;-52
2023/12/04 03:03:24;;;;;;;15.27;9.35;;;4.50;69.50;;;;;;5035646;28;20052;-56
2023/12/04 03:05:50;;;;;;;15.00;9.77;;;4.50;69.50;;;;;;5044143;28;20045;-51
2023/12/04 03:08:17;;;;;;;15.48;9.30;;;4.50;69.60;;;;;;5054377;28;20110;-54
2023/12/04 03:10:46;;;;;;;12.73;8.25;;;4.50;69.50;;;;;;5052603;28;20052;-53
2023/12/04 03:13:15;;;;;;;13.70;9.35;;;4.50;69.30;;;;;;5051985;28;20119;-54
2023/12/04 03:15:46;;;;;;;12.73;8.77;;;4.50;69.20;;;;;;5053537;28;20128;-54
2023/12/04 03:18:13;;;;;;;12.00;8.20;;;4.50;69.30;;;;;;5049732;28;20827;-55
2023/12/04 03:20:40;;;;;;;15.15;9.00;;;4.50;69.20;;;;;;5053168;28;20069;-52
2023/12/04 03:23:07;;;;;;;14.45;8.15;;;4.50;69.10;;;;;;5049921;28;20087;-52
2023/12/04 03:25:33;;;;;;;13.68;8.60;;;4.50;69.10;;;;;;5045388;28;20473;-54
2023/12/04 03:28:00;;;;;;;12.43;8.73;;;4.50;69.70;;;;;;5054558;28;20068;-55
2023/12/04 03:30:29;;;;;;;12.45;8.80;;;4.40;69.00;;;;;;5052929;28;20098;-52
2023/12/04 03:33:01;;;;;;;12.57;7.93;;;4.40;68.80;;;;;;5051072;28;20053;-55
2023/12/04 03:35:32;;;;;;;12.07;7.40;;;4.40;68.70;;;;;;5050797;28;20041;-54
2023/12/04 03:37:59;;;;;;;13.13;8.05;;;4.40;68.70;;;;;;5053323;28;20112;-55
2023/12/04 03:40:28;;;;;;;10.77;7.57;;;4.40;68.60;;;;;;5052445;28;20049;-54
2023/12/04 03:42:55;;;;;;;11.45;7.22;;;4.40;68.60;;;;;;5049012;28;20040;-55
2023/12/04 03:45:24;;;;;;;12.50;7.38;;;4.40;68.60;;;;;;5052770;28;20506;-54
2023/12/04 03:47:53;;;;;;;10.68;6.90;;;4.40;68.70;;;;;;5033136;28;20061;-53
2023/12/04 03:50:24;;;;;;;10.32;6.47;;;4.40;68.60;;;;;;5040568;28;20047;-56
2023/12/04 03:52:51;;;;;;;10.02;7.55;;;4.40;68.40;;;;;;5039541;28;20423;-53
2023/12/04 03:55:19;;;;;;;11.52;7.18;;;4.40;68.40;;;;;;5047051;28;20045;-53
2023/12/04 03:57:47;;;;;;;11.43;6.75;;;4.40;68.40;;;;;;5042736;28;20124;-54
2023/12/04 04:00:16;;;;;;;12.15;6.78;;;4.40;68.40;;;;;;5047160;28;20045;-54
2023/12/04 04:02:44;;;;;;;10.88;6.85;;;4.40;68.40;;;;;;5052604;28;20041;-55
2023/12/04 04:05:13;;;;;;;9.05;6.50;;;4.40;68.40;;;;;;5048870;28;20064;-52
2023/12/04 04:07:40;;;;;;;12.45;7.35;;;4.40;68.60;;;;;;5053054;28;20470;-54
2023/12/04 04:10:12;;;;;;;12.48;8.27;;;4.40;68.60;;;;;;5052338;28;20041;-54
2023/12/04 04:12:40;;;;;;;10.70;6.93;;;4.40;68.40;;;;;;5044773;28;20068;-54
2023/12/04 04:15:09;;;;;;;9.82;6.97;;;4.40;68.30;;;;;;5052523;28;20052;-55
2023/12/04 04:17:38;;;;;;;10.02;6.47;;;4.40;68.10;;;;;;5052806;28;20045;-53
2023/12/04 04:20:06;;;;;;;10.85;7.05;;;4.40;68.20;;;;;;5051894;28;20082;-51
2023/12/04 04:22:38;;;;;;;10.50;7.13;;;4.40;68.30;;;;;;5050325;28;20454;-54
2023/12/04 04:25:06;;;;;;;10.93;6.70;;;4.40;68.30;;;;;;5044203;28;20091;-53
2023/12/04 04:27:35;;;;;;;10.45;6.40;;;4.40;68.30;;;;;;5053164;28;20055;-55
2023/12/04 04:30:05;;;;;;;9.93;6.40;;;4.40;68.20;;;;;;5052411;28;20045;-53
2023/12/04 04:32:32;;;;;;;11.93;6.65;;;4.40;68.10;;;;;;5047297;28;20049;-53
2023/12/04 04:35:01;;;;;;;10.40;7.78;;;4.40;68.10;;;;;;5052223;28;20041;-52
2023/12/04 04:37:30;;;;;;;9.05;6.32;;;4.40;68.60;;;;;;5052399;28;20055;-54
2023/12/04 04:39:57;;;;;;;10.50;6.93;;;4.40;67.80;;;;;;5052442;28;20086;-50
2023/12/04 04:42:24;;;;;;;12.50;7.57;;;4.40;67.80;;;;;;5050348;28;20123;-55
2023/12/04 04:44:53;;;;;;;11.73;7.32;;;4.40;67.80;;;;;;5052062;28;20040;-55
2023/12/04 04:47:24;;;;;;;10.45;7.22;;;4.40;67.70;;;;;;5052388;28;20064;-55
2023/12/04 04:49:51;;;;;;;12.00;7.53;;;4.40;67.70;;;;;;5050692;28;20961;-55
2023/12/04 04:52:17;;;;;;;10.55;7.15;;;4.40;67.50;;;;;;5049428;28;20044;-52
2023/12/04 04:54:53;;;;;;;10.68;6.55;;;4.40;67.30;;;;;;5045902;28;20056;-55
2023/12/04 04:57:23;;;;;;;11.45;6.78;;;4.30;67.20;;;;;;5047525;28;20045;-54
2023/12/04 04:59:56;;;;;;;10.55;6.53;;;4.30;67.10;;;;;;5050651;28;20114;-55
2023/12/04 05:02:25;;;;;;;11.10;7.18;;;4.30;67.10;;;;;;5049548;28;20044;-55
2023/12/04 05:04:57;;;;;;;9.95;7.07;;;4.30;67.10;;;;;;5045749;28;20067;-54
2023/12/04 05:07:23;;;;;;;9.27;6.10;;;4.30;67.10;;;;;;5051841;28;20044;-51
2023/12/04 05:09:53;;;;;;;10.60;6.88;;;4.30;67.00;;;;;;5048222;28;20037;-54
2023/12/04 05:12:19;;;;;;;9.18;6.35;;;4.30;66.80;;;;;;5050357;28;20036;-55
2023/12/04 05:14:46;;;;;;;8.38;6.38;;;4.30;66.70;;;;;;5047564;28;20049;-55
2023/12/04 05:17:13;;;;;;;11.38;7.63;;;4.30;66.70;;;;;;5046777;28;20120;-55
2023/12/04 05:19:42;;;;;;;11.80;6.65;;;4.30;66.60;;;;;;5049566;28;20194;-55
2023/12/04 05:22:09;;;;;;;8.80;6.10;;;4.30;66.50;;;;;;5046702;28;20490;-55
2023/12/04 05:24:40;;;;;;;10.60;7.43;;;4.30;66.50;;;;;;5043490;28;20521;-53
2023/12/04 05:27:07;;;;;;;10.13;6.03;;;4.30;66.50;;;;;;5051517;28;20048;-55
2023/12/04 05:29:34;;;;;;;10.40;6.15;;;4.30;66.50;;;;;;5050370;28;20032;-54
2023/12/04 05:32:00;;;;;;;9.57;6.78;;;4.30;66.50;;;;;;5043806;28;20547;-53
2023/12/04 05:34:27;;;;;;;11.07;7.53;;;4.40;66.50;;;;;;5047235;28;20053;-51
2023/12/04 05:36:55;;;;;;;9.80;6.63;;;4.30;66.50;;;;;;5050431;28;20140;-52
2023/12/04 05:39:21;;;;;;;11.43;7.03;;;4.40;66.50;;;;;;5051652;28;20207;-55
2023/12/04 05:41:48;;;;;;;11.25;7.43;;;4.30;66.30;;;;;;5046388;28;20119;-55
2023/12/04 05:44:15;;;;;;;10.50;7.32;;;4.30;66.30;;;;;;5046070;28;20040;-55
2023/12/04 05:46:41;;;;;;;10.80;6.93;;;4.40;66.30;;;;;;5050712;28;20049;-53
2023/12/04 05:49:08;;;;;;;10.80;7.03;;;4.40;66.10;;;;;;5050814;28;20566;-50
2023/12/04 05:51:35;;;;;;;10.45;6.90;;;4.40;66.10;;;;;;5048164;28;20045;-54
2023/12/04 05:54:02;;;;;;;11.75;7.15;;;4.40;66.10;;;;;;5046944;28;20048;-52
2023/12/04 05:56:29;;;;;;;9.30;6.80;;;4.40;65.90;;;;;;5048150;28;20101;-52
2023/12/04 05:58:58;;;;;;;7.68;6.20;;;4.40;65.90;;;;;;5094013;22;20078;-54
2023/12/04 06:01:25;;;;;;;8.52;6.18;;;4.40;65.90;;;;;;5077819;28;20067;-54
2023/12/04 06:03:53;;;;;;;10.73;6.80;;;4.50;66.00;;;;;;5077653;28;20044;-50
2023/12/04 06:06:20;;;;;;;15.27;7.00;;;4.50;66.00;;;;;;5079771;28;20049;-53
2023/12/04 06:08:47;;;;;;;9.77;6.45;;;4.50;66.00;;;;;;5063970;28;20044;-52
2023/12/04 06:11:14;;;;;;;12.52;9.05;;;4.50;65.90;;;;;;5069260;28;20047;-50
2023/12/04 06:13:40;;;;;;;13.25;8.27;;;4.50;65.90;;;;;;5066571;28;20094;-53
2023/12/04 06:16:07;;;;;;;12.95;8.68;;;4.50;65.70;;;;;;5069559;28;20040;-51
2023/12/04 06:18:34;;;;;;;11.93;7.57;;;4.50;65.40;;;;;;5061441;28;20056;-50
2023/12/04 06:21:01;;;;;;;10.20;7.10;;;4.60;65.30;;;;;;5062563;28;20040;-57
2023/12/04 06:23:28;;;;;;;12.73;8.35;;;4.50;65.20;;;;;;5058418;28;20453;-58
2023/12/04 06:25:56;;;;;;;10.80;8.50;;;4.50;65.20;;;;;;5062460;28;20045;-58
2023/12/04 06:28:23;;;;;;;12.55;8.02;;;4.50;65.20;;;;;;5054694;28;20083;-58
2023/12/04 06:30:51;;;;;;;11.52;7.90;;;4.50;65.20;;;;;;5065250;28;20036;-57
2023/12/04 06:33:20;;;;;;;12.27;8.32;;;4.60;65.40;;;;;;5062019;28;20107;-57
2023/12/04 06:35:47;;;;;;;12.15;8.75;;;4.60;65.50;;;;;;5062365;28;20055;-58
2023/12/04 06:38:16;;;;;;;12.52;7.32;;;4.50;65.30;;;;;;5063954;28;20526;-58
2023/12/04 06:40:43;;;;;;;12.40;8.10;;;4.60;65.30;;;;;;5062409;28;20388;-57
2023/12/04 06:43:10;;;;;;;11.45;7.85;;;4.60;65.50;;;;;;5064658;28;20120;-58
2023/12/04 06:45:37;;;;;;;10.88;7.70;;;4.60;65.60;;;;;;5058930;28;20580;-57
2023/12/04 06:48:04;;;;;;;10.13;7.53;;;4.60;65.50;;;;;;5057980;28;20048;-57
2023/12/04 06:50:31;;;;;;;10.65;7.18;;;4.60;65.30;;;;;;5057067;28;20127;-58
2023/12/04 06:52:57;;;;;;;7.97;6.25;;;4.70;65.30;;;;;;5057589;28;20529;-58
2023/12/04 06:55:24;;;;;;;8.35;5.60;;;4.70;65.20;;;;;;5055105;28;20064;-58
2023/12/04 06:57:51;;;;;;;9.88;6.28;;;4.70;65.10;;;;;;5067103;28;20843;-57
2023/12/04 07:00:18;;;;;;;9.38;5.95;;;4.70;64.90;;;;;;5066363;28;20052;-57
2023/12/04 07:02:50;;;;;;;10.77;6.22;;;4.70;64.80;;;;;;5067676;28;20051;-57
2023/12/04 07:05:18;;;;;;;11.68;7.15;;;4.60;64.80;;;;;;5057501;28;20556;-57
2023/12/04 07:07:45;;;;;;;12.27;8.55;;;4.70;64.90;;;;;;5066692;28;20048;-58
2023/12/04 07:10:14;;;;;;;10.85;8.18;;;4.70;64.80;;;;;;5067166;28;20072;-57
2023/12/04 07:12:42;;;;;;;10.25;7.57;;;4.70;64.70;;;;;;5068162;28;20048;-56
2023/12/04 07:15:09;;;;;;;10.35;7.75;;;4.70;64.70;;;;;;5065543;28;20048;-57
2023/12/04 07:17:37;;;;;;;11.38;7.57;;;4.70;64.70;;;;;;5069947;28;20048;-56
2023/12/04 07:20:08;;;;;;;14.25;7.55;;;4.70;64.80;;;;;;5071227;28;20091;-57
2023/12/04 07:22:34;;;;;;;11.75;7.43;;;4.70;65.10;;;;;;5069828;28;20041;-58
2023/12/04 07:25:06;;;;;;;11.30;8.00;;;4.70;65.10;;;;;;5066071;28;20048;-57
2023/12/04 07:27:34;;;;;;;9.20;7.93;;;4.70;65.10;;;;;;5066195;28;20055;-57
2023/12/04 07:30:02;;;;;;;11.95;7.38;;;4.70;64.80;;;;;;5072408;28;20102;-57
2023/12/04 07:32:29;;;;;;;10.32;7.95;;;4.80;64.60;;;;;;5065738;28;20049;-58
2023/12/04 07:34:56;;;;;;;10.98;7.50;;;4.80;64.50;;;;;;5065949;28;20380;-57
2023/12/04 07:37:23;;;;;;;10.93;8.02;;;4.70;64.50;;;;;;5069736;28;20064;-58
2023/12/04 07:39:49;;;;;;;11.13;8.13;;;4.70;64.60;;;;;;5072594;28;20091;-56
2023/12/04 07:42:16;;;;;;;13.02;7.50;;;4.70;64.50;;;;;;5065519;28;20037;-57
2023/12/04 07:44:43;;;;;;;9.52;7.45;;;4.80;64.30;;;;;;5060326;28;20083;-58
2023/12/04 07:47:10;;;;;;;12.18;7.72;;;4.80;64.20;;;;;;5068040;28;20431;-58
2023/12/04 07:49:36;;;;;;;11.57;8.73;;;4.80;64.30;;;;;;5068219;28;20082;-58
2023/12/04 07:52:03;;;;;;;12.32;8.18;;;4.80;64.10;;;;;;5066981;28;20099;-58
2023/12/04 07:54:30;;;;;;;11.07;7.82;;;4.80;64.00;;;;;;5068234;28;20052;-58
2023/12/04 07:56:58;;;;;;;13.77;8.80;;;4.80;64.20;;;;;;5064842;28;20120;-58
2023/12/04 07:59:25;;;;;;;12.35;8.65;;;4.80;64.30;;;;;;5067091;28;20077;-58
2023/12/04 08:01:52;;;;;;;11.77;8.30;;;4.80;64.20;;;;;;5071489;28;20072;-58
2023/12/04 08:04:18;;;;;;;12.82;8.05;;;4.80;64.30;;;;;;5065963;28;20090;-58
2023/12/04 08:06:47;;;;;;;12.77;8.93;;;4.80;64.30;;;;;;5067582;28;20047;-58
2023/12/04 08:09:14;;;;;;;15.18;9.25;;;4.80;64.40;;;;;;5068017;28;20106;-58
2023/12/04 08:11:41;;;;;;;11.07;8.25;;;4.90;64.50;;;;;;5067486;28;20918;-56
2023/12/04 08:14:07;;;;;;;15.88;9.90;;;4.90;64.60;;;;;;5071511;28;20105;-58
2023/12/04 08:16:34;;;;;;;14.48;8.98;;;4.90;64.50;;;;;;5069050;28;20032;-58
2023/12/04 08:19:01;;;;;;;16.98;9.73;;;4.90;64.40;;;;;;5065013;28;20040;-58
2023/12/04 08:21:28;;;;;;;12.52;9.90;;;4.90;64.50;;;;;;5070096;28;20449;-58
2023/12/04 08:23:55;;;;;;;13.02;9.10;;;5.00;64.60;;;;;;5067087;28;20036;-58
2023/12/04 08:26:25;;;;;;;14.35;9.52;;;5.00;64.40;;;;;;5068106;28;20110;-57
2023/12/04 08:28:52;;;;;;;14.30;10.25;;;5.00;64.20;;;;;;5064941;28;20039;-58
2023/12/04 08:31:19;;;;;;;14.15;9.95;;;5.00;64.30;;;;;;5069854;28;20064;-57
2023/12/04 08:33:46;;;;;;;17.25;10.93;;;5.00;64.30;;;;;;5067892;28;20121;-58
2023/12/04 08:36:15;;;;;;;14.45;10.38;;;5.00;64.40;;;;;;5066748;28;20891;-58
2023/12/04 08:38:42;;;;;;;15.60;10.20;;;5.00;64.40;;;;;;5065448;28;20040;-58
2023/12/04 08:41:09;;;;;;;15.80;10.63;;;5.00;64.30;;;;;;5067061;28;20564;-58
2023/12/04 08:43:35;;;;;;;14.65;9.80;;;5.10;64.40;;;;;;5070922;28;20060;-57
2023/12/04 08:46:02;;;;;;;16.42;10.98;;;5.10;64.40;;;;;;5064748;28;20086;-58
2023/12/04 08:48:29;;;;;;;16.75;10.45;;;5.10;64.30;;;;;;5070069;28;20090;-56
2023/12/04 08:50:56;;;;;;;14.80;10.13;;;5.10;64.30;;;;;;5070343;28;20036;-58
2023/12/04 08:53:23;;;;;;;12.50;9.18;;;5.10;64.30;;;;;;5063938;28;20044;-58
2023/12/04 08:55:52;;;;;;;14.50;9.43;;;5.10;64.20;;;;;;5062165;28;20068;-58
2023/12/04 08:58:18;;;;;;;13.95;9.90;;;5.10;64.00;;;;;;5071155;28;20051;-58
2023/12/04 09:00:45;;;;;;;15.55;10.07;;;5.10;64.10;;;;;;5070788;28;20522;-57
2023/12/04 09:03:12;;;;;;;12.68;8.60;;;5.10;64.00;;;;;;5064903;28;20372;-58
2023/12/04 09:05:52;;;;;;;14.15;9.70;;;5.20;64.00;;;;;;5070213;28;20040;-58
2023/12/04 09:08:19;;;;;;;12.63;9.07;;;5.20;64.10;;;;;;5071095;28;20041;-58
2023/12/04 09:11:03;;;;;;;13.85;9.40;;;5.20;64.10;;;;;;5067977;28;20414;-58
2023/12/04 09:13:35;;;;;;;12.30;9.68;;;5.20;64.10;;;;;;5064929;28;20757;-57
2023/12/04 09:16:02;;;;;;;12.98;9.55;;;5.30;63.90;;;;;;5062596;28;20040;-58
2023/12/04 09:18:29;;;;;;;15.43;10.13;;;5.30;63.70;;;;;;5067642;28;20083;-58
2023/12/04 09:20:55;;;;;;;12.10;8.60;;;5.30;63.70;;;;;;5065301;28;20090;-57
2023/12/04 09:23:22;;;;;;;13.40;9.82;;;5.30;63.70;;;;;;5067373;28;20036;-58
2023/12/04 09:25:50;;;;;;;11.40;8.25;;;5.30;64.00;;;;;;5060983;28;20129;-58
2023/12/04 09:28:17;;;;;;;11.32;8.63;;;5.30;64.00;;;;;;5067208;28;20029;-58
2023/12/04 09:30:44;;;;;;;11.15;8.07;;;5.40;64.00;;;;;;5068661;28;20123;-58
2023/12/04 09:33:11;;;;;;;10.55;8.82;;;5.40;63.80;;;;;;5065369;28;20514;-58
2023/12/04 09:35:40;;;;;;;14.23;8.98;;;5.40;63.70;;;;;;5064717;28;20045;-58
2023/12/04 09:38:07;;;;;;;13.32;8.98;;;5.50;63.70;;;;;;5066295;28;20040;-58
2023/12/04 09:40:34;;;;;;;12.77;9.20;;;5.50;63.70;;;;;;5062568;28;20129;-57
2023/12/04 09:43:01;;;;;;;14.13;9.52;;;5.50;63.70;;;;;;5067143;28;20040;-58
2023/12/04 09:45:31;;;;;;;14.07;9.40;;;5.60;63.70;;;;;;5068140;28;20392;-57
2023/12/04 09:47:59;;;;;;;13.13;8.98;;;5.60;63.50;;;;;;5070839;28;20467;-57
2023/12/04 09:50:26;;;;;;;12.70;9.15;;;5.60;63.30;;;;;;5062990;28;20111;-58
2023/12/04 09:52:53;;;;;;;12.73;8.73;;;5.60;63.20;;;;;;5067910;28;20071;-58
2023/12/04 09:55:20;;;;;;;12.45;9.10;;;5.60;63.10;;;;;;5062004;28;20119;-57
2023/12/04 09:57:48;;;;;;;11.63;8.07;;;5.70;63.20;;;;;;5066329;28;20564;-57
2023/12/04 10:00:16;;;;;;;13.77;9.45;;;5.70;63.20;;;;;;5064964;28;20110;-56
2023/12/04 10:02:43;;;;;;;11.70;7.95;;;5.70;63.20;;;;;;5059461;28;20086;-58
2023/12/04 10:05:10;;;;;;;13.75;9.35;;;5.70;63.20;;;;;;5068100;28;20039;-56
2023/12/04 10:07:37;;;;;;;13.60;8.95;;;5.70;63.20;;;;;;5069566;28;20040;-58
2023/12/04 10:10:09;;;;;;;10.45;7.88;;;5.80;63.20;;;;;;5060969;28;20403;-56
2023/12/04 10:12:36;;;;;;;12.10;8.38;;;5.80;63.20;;;;;;5064696;28;20094;-58
2023/12/04 10:15:11;;;;;;;14.20;8.82;;;5.80;63.00;;;;;;5069885;28;20040;-57
2023/12/04 10:17:40;;;;;;;13.55;9.10;;;5.80;63.00;;;;;;5066499;28;20052;-57
2023/12/04 10:20:18;;;;;;;13.98;9.38;;;5.80;63.10;;;;;;5061418;28;20037;-58
2023/12/04 10:23:00;;;;;;;14.45;9.27;;;5.90;62.70;;;;;;5069489;28;20609;-58
2023/12/04 10:25:30;;;;;;;12.32;9.32;;;5.90;63.30;;;;;;5060298;28;20058;-58
2023/12/04 10:28:09;;;;;;;12.77;9.38;;;5.90;62.90;;;;;;5065988;28;20388;-58
2023/12/04 10:30:36;;;;;;;11.45;8.93;;;5.90;62.80;;;;;;5067887;28;20063;-58
2023/12/04 10:33:05;;;;;;;15.15;8.38;;;6.00;63.20;;;;;;5065684;28;20507;-57
2023/12/04 10:35:36;;;;;;;13.07;9.35;;;6.00;63.20;;;;;;5059773;28;20120;-58
2023/12/04 10:38:05;;;;;;;12.40;8.43;;;6.00;63.10;;;;;;5062735;28;20487;-58
2023/12/04 10:40:34;;;;;;;13.52;9.02;;;6.10;63.00;;;;;;5059424;28;20064;-58
2023/12/04 10:43:09;;;;;;;13.82;8.73;;;6.10;62.80;;;;;;5058038;28;20431;-58
2023/12/04 10:45:41;;;;;;;12.60;9.85;;;6.10;62.60;;;;;;5065508;28;20041;-58
2023/12/04 10:48:10;;;;;;;11.88;9.07;;;6.40;63.10;;;;;;5073873;28;20036;-58
2023/12/04 10:50:40;;;;;;;13.05;8.43;;;6.20;63.00;;;;;;5069962;28;20044;-57
2023/12/04 10:53:09;;;;;;;12.85;9.10;;;6.30;62.90;;;;;;5067020;28;20498;-58
2023/12/04 10:55:36;;;;;;;13.77;7.88;;;6.30;63.00;;;;;;5065779;28;20141;-58
2023/12/04 10:58:09;;;;;;;10.55;7.85;;;6.30;63.00;;;;;;5066821;28;20158;-58
2023/12/04 11:00:42;;;;;;;10.48;8.00;;;6.40;62.80;;;;;;5073050;28;20041;-57
2023/12/04 11:03:13;;;;;;;10.35;7.70;;;6.40;62.90;;;;;;5066150;28;20461;-58
2023/12/04 11:05:40;;;;;;;14.07;9.02;;;6.50;63.20;;;;;;5071532;28;20043;-58
2023/12/04 11:08:14;;;;;;;10.68;7.88;;;6.40;63.00;;;;;;5071313;28;20047;-58
2023/12/04 11:10:59;;;;;;;14.23;8.35;;;6.50;63.10;;;;;;5071428;28;20036;-58
2023/12/04 11:13:30;;;;;;;12.30;9.27;;;6.50;62.90;;;;;;5063280;28;20399;-58
2023/12/04 11:16:21;;;;;;;12.43;9.50;;;6.60;63.20;;;;;;5069458;28;20448;-57
2023/12/04 11:18:54;;;;;;;11.38;8.80;;;6.60;63.40;;;;;;5054950;28;20052;-56
2023/12/04 11:21:22;;;;;;;10.63;7.97;;;6.70;63.20;;;;;;5071047;28;20038;-58
2023/12/04 11:23:49;;;;;;;12.20;8.45;;;6.70;63.00;;;;;;5062108;28;20051;-58
2023/12/04 11:26:16;;;;;;;12.38;8.95;;;6.70;62.90;;;;;;5065964;28;20056;-57
2023/12/04 11:28:44;;;;;;;11.00;8.00;;;6.70;63.00;;;;;;5066085;28;20093;-57
2023/12/04 11:31:11;;;;;;;11.13;7.97;;;6.70;63.00;;;;;;5065948;28;20060;-58
2023/12/04 11:33:38;;;;;;;12.05;8.80;;;6.70;63.00;;;;;;5062310;28;20118;-58
2023/12/04 11:36:11;;;;;;;11.43;8.77;;;6.70;63.00;;;;;;5065590;28;21017;-57
2023/12/04 11:38:48;;;;;;;11.23;8.35;;;6.70;63.10;;;;;;5065290;28;20060;-58
2023/12/04 11:41:25;;;;;;;12.35;8.73;;;6.70;63.10;;;;;;5057711;28;20045;-58
2023/12/04 11:43:56;;;;;;;11.38;8.98;;;6.70;63.10;;;;;;5071611;28;20082;-58
2023/12/04 11:46:26;;;;;;;12.70;9.13;;;6.70;63.50;;;;;;5069047;28;20032;-57
2023/12/04 11:49:16;;;;;;;12.07;8.98;;;6.80;63.70;;;;;;5069509;28;20486;-57
2023/12/04 11:51:46;;;;;;;10.98;7.82;;;6.80;63.80;;;;;;5064327;28;20036;-57
2023/12/04 11:54:15;;;;;;;9.65;8.35;;;6.80;63.90;;;;;;5063657;28;20177;-58
2023/12/04 11:56:57;;;;;;;10.20;7.68;;;6.80;63.90;;;;;;5067603;28;20490;-57
2023/12/04 11:59:24;;;;;;;9.48;7.43;;;6.80;63.80;;;;;;5067460;28;20055;-57
2023/12/04 12:01:53;;;;;;;10.25;7.55;;;6.80;64.00;;;;;;5062389;28;20045;-57
2023/12/04 12:04:20;;;;;;;10.25;7.97;;;6.80;64.00;;;;;;5082482;22;20147;-54
2023/12/04 12:06:50;;;;;;;13.95;8.68;;;6.80;64.30;;;;;;5058536;28;20060;-52
2023/12/04 12:09:17;;;;;;;10.55;8.30;;;6.80;64.30;;;;;;5057034;28;20063;-54
2023/12/04 12:11:48;;;;;;;13.27;8.68;;;6.80;64.50;;;;;;5046304;28;20421;-54
2023/12/04 12:14:19;;;;;;;11.90;8.35;;;6.80;64.70;;;;;;5051876;28;20069;-52
2023/12/04 12:16:46;;;;;;;11.30;8.73;;;6.80;64.70;;;;;;5052011;28;20669;-52
2023/12/04 12:19:13;;;;;;;12.05;8.32;;;6.70;64.70;;;;;;5046913;28;20049;-52
2023/12/04 12:21:40;;;;;;;11.15;7.70;;;6.70;64.90;;;;;;5050381;28;20037;-55
2023/12/04 12:24:07;;;;;;;10.15;8.20;;;6.70;65.10;;;;;;5047523;28;20045;-54
2023/12/04 12:26:33;;;;;;;12.43;8.65;;;6.70;65.40;;;;;;5049488;28;20044;-52
2023/12/04 12:29:00;;;;;;;10.15;7.57;;;6.70;65.50;;;;;;5052206;28;20048;-50
2023/12/04 12:31:28;;;;;;;12.57;8.32;;;6.70;65.60;;;;;;5050785;28;20049;-52
2023/12/04 12:33:55;;;;;;;9.50;7.30;;;6.70;65.60;;;;;;5048893;28;20503;-52
2023/12/04 12:36:23;;;;;;;9.50;7.57;;;6.70;65.80;;;;;;5051298;28;20044;-53
2023/12/04 12:38:50;;;;;;;10.05;7.97;;;6.60;65.80;;;;;;5052001;28;20041;-54
2023/12/04 12:41:17;;;;;;;11.13;7.28;;;6.60;65.90;;;;;;5044920;28;20053;-52
2023/12/04 12:43:45;;;;;;;11.27;8.30;;;6.60;66.00;;;;;;5047834;28;20049;-50
2023/12/04 12:46:14;;;;;;;10.90;7.40;;;6.60;66.00;;;;;;5051115;28;20037;-50
2023/12/04 12:48:42;;;;;;;9.25;7.65;;;6.60;66.10;;;;;;5051764;28;20091;-53
2023/12/04 12:51:11;;;;;;;10.90;8.43;;;6.60;66.30;;;;;;5045961;28;20042;-50
2023/12/04 12:53:37;;;;;;;13.63;8.50;;;6.60;66.40;;;;;;5044679;28;20103;-55